Cricklade, United Kingdom
Current Conditions -  °F | °C
As of 10:28 PM on Thursday 23 Oct 2014 (Local Time) from EGVA Reporting Station
Overcast Overcast  
Wind Chill: 57°   Ceiling: 1600
Heat Index: 57°   Visibility: 6mi
Dew Point: 55°   Wind: 9mph
Humidity: 94%   Direction: 220°SW
Pressure: 29.99"   Gusts: NA
Location:  51.64°N, 1.86°W
Report Text: EGVA 232128Z AUTO 22008KT 9999 BKN016 OVC039 14/13 A2999 RMK AO2 CIG 016V039
Loading
Personal Weather Stations






























Interactive Weather Map
Tropical Storm Tracking
New forecast layout! Learn more

10-Day Weather Forecast

Advertisements
Track Severe Weather on mobile